Time;durP1;ratioP1;P1;durP2;ratioP2;P2;SDS_P1;SDS_P2;PMS_P1;PMS_P2;Temp;Humidity;BMP_temperature;BMP_pressure;BME280_temperature;BME280_humidity;BME280_pressure;Samples;Min_cycle;Max_cycle;Signal;HPM_P1;HPM_P2
2023/11/10 00:02:19;;;;;;;9.75;4.10;;;;;;;;;;5048364;28;20040;-61
2023/11/10 00:04:49;;;;;;;8.75;3.90;;;;;;;;;;5040185;28;20079;-61
2023/11/10 00:07:17;;;;;;;9.48;4.43;;;;;;;;;;5049124;28;20045;-61
2023/11/10 00:09:43;;;;;;;7.40;4.28;;;;;;;;;;5048451;28;20045;-61
2023/11/10 00:12:09;;;;;;;10.30;4.72;;;;;;;;;;5047586;28;20037;-61
2023/11/10 00:14:36;;;;;;;9.98;5.07;;;;;;;;;;5048331;28;20588;-61
2023/11/10 00:17:02;;;;;;;8.95;4.72;;;;;;;;;;5048698;28;20045;-61
2023/11/10 00:19:29;;;;;;;9.95;5.22;;;;;;;;;;5049749;28;20120;-61
2023/11/10 00:21:56;;;;;;;12.40;5.43;;;;;;;;;;5048156;28;20045;-61
2023/11/10 00:24:23;;;;;;;8.98;5.30;;;;;;;;;;5050227;28;20098;-61
2023/11/10 00:26:50;;;;;;;11.52;5.13;;;;;;;;;;5045392;28;20055;-61
2023/11/10 00:29:16;;;;;;;14.32;6.00;;;;;;;;;;5048486;28;20068;-61
2023/11/10 00:31:45;;;;;;;13.07;5.93;;;;;;;;;;5047486;28;20049;-62
2023/11/10 00:34:11;;;;;;;17.85;6.47;;;;;;;;;;5049742;28;20068;-61
2023/11/10 00:36:40;;;;;;;11.65;6.15;;;;;;;;;;5024404;28;20455;-61
2023/11/10 00:39:06;;;;;;;14.00;6.20;;;;;;;;;;5048193;28;20135;-61
2023/11/10 00:41:33;;;;;;;12.13;6.15;;;;;;;;;;5035485;28;20095;-61
2023/11/10 00:43:59;;;;;;;16.83;6.05;;;;;;;;;;5047049;28;20048;-61
2023/11/10 00:46:25;;;;;;;12.82;6.15;;;;;;;;;;5045441;28;20037;-61
2023/11/10 00:48:51;;;;;;;16.35;7.03;;;;;;;;;;5049091;28;20426;-61
2023/11/10 00:51:17;;;;;;;18.77;7.38;;;;;;;;;;5049904;28;20037;-61
2023/11/10 00:53:44;;;;;;;13.05;7.22;;;;;;;;;;5048949;28;20041;-61
2023/11/10 00:56:10;;;;;;;16.33;7.53;;;;;;;;;;5049261;28;20072;-61
2023/11/10 00:58:36;;;;;;;11.15;6.30;;;;;;;;;;5031914;28;20485;-61
2023/11/10 01:01:03;;;;;;;11.75;6.30;;;;;;;;;;5045864;28;20072;-61
2023/11/10 01:03:29;;;;;;;10.95;5.97;;;;;;;;;;5043004;28;20136;-61
2023/11/10 01:05:55;;;;;;;13.65;6.60;;;;;;;;;;5048268;28;20033;-61
2023/11/10 01:08:21;;;;;;;15.15;7.38;;;;;;;;;;5039681;28;20087;-61
2023/11/10 01:10:47;;;;;;;12.60;6.35;;;;;;;;;;5047272;28;20033;-61
2023/11/10 01:13:14;;;;;;;9.52;6.45;;;;;;;;;;5049640;28;20172;-61
2023/11/10 01:15:40;;;;;;;12.82;5.32;;;;;;;;;;5042266;28;20512;-62
2023/11/10 01:18:07;;;;;;;8.80;5.95;;;;;;;;;;5048303;28;20037;-62
2023/11/10 01:20:33;;;;;;;12.55;5.75;;;;;;;;;;5047529;28;20095;-61
2023/11/10 01:22:59;;;;;;;10.00;5.88;;;;;;;;;;5048059;28;20405;-61
2023/11/10 01:25:26;;;;;;;10.15;5.85;;;;;;;;;;5045453;28;20136;-61
2023/11/10 01:27:53;;;;;;;10.27;5.32;;;;;;;;;;5048977;28;20108;-61
2023/11/10 01:30:20;;;;;;;10.60;5.50;;;;;;;;;;5046152;28;20087;-61
2023/11/10 01:32:46;;;;;;;9.25;5.50;;;;;;;;;;5043998;28;20049;-61
2023/11/10 01:35:12;;;;;;;11.68;5.78;;;;;;;;;;5047289;28;20095;-61
2023/11/10 01:37:40;;;;;;;11.88;6.22;;;;;;;;;;5044205;28;20561;-61
2023/11/10 01:40:08;;;;;;;14.23;6.70;;;;;;;;;;5048107;28;20119;-61
2023/11/10 01:42:34;;;;;;;8.68;4.90;;;;;;;;;;5047574;28;20204;-61
2023/11/10 01:45:00;;;;;;;11.68;5.97;;;;;;;;;;5044603;28;20505;-61
2023/11/10 01:47:27;;;;;;;13.55;6.07;;;;;;;;;;5043947;28;20052;-61
2023/11/10 01:49:53;;;;;;;11.55;6.00;;;;;;;;;;5047322;28;20076;-61
2023/11/10 01:52:20;;;;;;;15.43;6.30;;;;;;;;;;5048348;28;20508;-61
2023/11/10 01:54:47;;;;;;;9.60;6.03;;;;;;;;;;5048484;28;20045;-61
2023/11/10 01:57:13;;;;;;;11.77;6.13;;;;;;;;;;5047194;28;20401;-61
2023/11/10 01:59:41;;;;;;;13.27;6.55;;;;;;;;;;5049273;28;20037;-62
2023/11/10 02:02:09;;;;;;;8.98;6.05;;;;;;;;;;5048508;28;20129;-61
2023/11/10 02:04:36;;;;;;;10.63;6.07;;;;;;;;;;5045795;28;20055;-61
2023/11/10 02:07:02;;;;;;;13.35;6.35;;;;;;;;;;5047248;28;20089;-62
2023/11/10 02:09:29;;;;;;;10.43;6.03;;;;;;;;;;5032154;28;20499;-61
2023/11/10 02:11:55;;;;;;;10.55;6.70;;;;;;;;;;5046967;28;20116;-62
2023/11/10 02:14:21;;;;;;;9.52;5.78;;;;;;;;;;5047450;28;20059;-61
2023/11/10 02:16:47;;;;;;;12.20;6.43;;;;;;;;;;5048187;28;20190;-61
2023/11/10 02:19:15;;;;;;;8.80;5.95;;;;;;;;;;5028544;28;20148;-61
2023/11/10 02:21:41;;;;;;;10.15;6.53;;;;;;;;;;5017702;28;20048;-61
2023/11/10 02:24:08;;;;;;;9.68;5.82;;;;;;;;;;5039068;28;20045;-61
2023/11/10 02:26:35;;;;;;;11.32;6.53;;;;;;;;;;5036921;28;20049;-61
2023/11/10 02:29:01;;;;;;;10.95;6.82;;;;;;;;;;5048335;28;20049;-62
2023/11/10 02:31:28;;;;;;;10.18;6.72;;;;;;;;;;5045587;28;20503;-61
2023/11/10 02:33:55;;;;;;;9.10;6.43;;;;;;;;;;5046256;28;20056;-62
2023/11/10 02:36:21;;;;;;;12.55;6.78;;;;;;;;;;5049463;28;20089;-62
2023/11/10 02:38:48;;;;;;;11.48;6.65;;;;;;;;;;5050358;28;20543;-61
2023/11/10 02:41:14;;;;;;;10.95;7.13;;;;;;;;;;5051255;28;20067;-61
2023/11/10 02:43:40;;;;;;;11.63;7.18;;;;;;;;;;5049142;28;20539;-62
2023/11/10 02:46:06;;;;;;;12.13;7.10;;;;;;;;;;5050613;28;20033;-61
2023/11/10 02:48:33;;;;;;;9.82;6.88;;;;;;;;;;5041227;28;20045;-61
2023/11/10 02:50:59;;;;;;;9.80;6.22;;;;;;;;;;5049089;28;20052;-61
2023/11/10 02:53:26;;;;;;;11.88;7.55;;;;;;;;;;5047977;28;20049;-61
2023/11/10 02:55:52;;;;;;;9.02;6.07;;;;;;;;;;5052284;28;20052;-61
2023/11/10 02:58:18;;;;;;;11.27;7.38;;;;;;;;;;5052057;28;20099;-61
2023/11/10 03:00:44;;;;;;;9.25;6.32;;;;;;;;;;5047613;28;20448;-61
2023/11/10 03:03:14;;;;;;;10.00;6.80;;;;;;;;;;5043843;28;20123;-61
2023/11/10 03:05:41;;;;;;;10.43;6.68;;;;;;;;;;5049817;28;20498;-61
2023/11/10 03:08:07;;;;;;;12.30;7.00;;;;;;;;;;5052093;28;20393;-61
2023/11/10 03:10:33;;;;;;;13.68;7.60;;;;;;;;;;5051015;28;20049;-61
2023/11/10 03:13:00;;;;;;;11.70;6.95;;;;;;;;;;5049695;28;20123;-61
2023/11/10 03:15:27;;;;;;;11.35;6.70;;;;;;;;;;5050266;28;20056;-61
2023/11/10 03:17:54;;;;;;;10.35;7.80;;;;;;;;;;5047364;28;20413;-61
2023/11/10 03:20:20;;;;;;;13.80;7.75;;;;;;;;;;5050692;28;20052;-61
2023/11/10 03:22:46;;;;;;;14.50;8.02;;;;;;;;;;5049665;28;20041;-61
2023/11/10 03:25:13;;;;;;;15.50;8.23;;;;;;;;;;5051092;28;20126;-61
2023/11/10 03:27:40;;;;;;;15.50;8.88;;;;;;;;;;5050246;28;20131;-61
2023/11/10 03:30:06;;;;;;;12.80;8.40;;;;;;;;;;5048961;28;20128;-61
2023/11/10 03:32:32;;;;;;;14.82;8.90;;;;;;;;;;5047799;28;20056;-61
2023/11/10 03:34:59;;;;;;;18.63;9.73;;;;;;;;;;5049520;28;20493;-61
2023/11/10 03:37:25;;;;;;;15.88;10.38;;;;;;;;;;5051517;28;20124;-61
2023/11/10 03:39:51;;;;;;;16.10;10.20;;;;;;;;;;5049754;28;20049;-61
2023/11/10 03:42:17;;;;;;;18.85;10.13;;;;;;;;;;5047636;28;20550;-61
2023/11/10 03:44:43;;;;;;;16.95;10.85;;;;;;;;;;5048975;28;20041;-61
2023/11/10 03:47:10;;;;;;;18.38;11.32;;;;;;;;;;5029438;28;20183;-61
2023/11/10 03:49:38;;;;;;;19.20;11.77;;;;;;;;;;5047955;28;20449;-61
2023/11/10 03:52:05;;;;;;;18.27;11.30;;;;;;;;;;5047858;28;20045;-61
2023/11/10 03:54:31;;;;;;;20.52;11.80;;;;;;;;;;5052051;28;20502;-61
2023/11/10 03:56:57;;;;;;;18.67;11.82;;;;;;;;;;5048948;28;20400;-61
2023/11/10 03:59:23;;;;;;;17.95;12.70;;;;;;;;;;5048088;28;20152;-61
2023/11/10 04:01:49;;;;;;;22.67;12.85;;;;;;;;;;5048232;28;20048;-61
2023/11/10 04:04:15;;;;;;;21.23;12.63;;;;;;;;;;5048404;28;20075;-61
2023/11/10 04:06:42;;;;;;;21.60;13.13;;;;;;;;;;5048677;28;20041;-61
2023/11/10 04:09:11;;;;;;;20.15;12.43;;;;;;;;;;5040717;28;20044;-61
2023/11/10 04:11:37;;;;;;;21.92;12.57;;;;;;;;;;5037208;28;20511;-61
2023/11/10 04:14:03;;;;;;;22.60;13.07;;;;;;;;;;5044194;28;20051;-61
2023/11/10 04:16:29;;;;;;;20.45;13.07;;;;;;;;;;5048930;28;20110;-61
2023/11/10 04:18:56;;;;;;;26.05;13.82;;;;;;;;;;5043877;28;20489;-61
2023/11/10 04:21:23;;;;;;;21.27;13.40;;;;;;;;;;5048877;28;20037;-61
2023/11/10 04:23:49;;;;;;;23.48;14.00;;;;;;;;;;5050853;28;20473;-61
2023/11/10 04:26:15;;;;;;;23.52;14.75;;;;;;;;;;5049415;28;20060;-61
2023/11/10 04:28:42;;;;;;;25.67;13.93;;;;;;;;;;5048295;28;20128;-61
2023/11/10 04:31:13;;;;;;;25.48;13.57;;;;;;;;;;5049684;28;20049;-61
2023/11/10 04:33:40;;;;;;;24.67;15.43;;;;;;;;;;5048652;28;20040;-61
2023/11/10 04:36:08;;;;;;;27.40;15.18;;;;;;;;;;5047819;28;20433;-61
2023/11/10 04:38:34;;;;;;;23.98;14.00;;;;;;;;;;5047287;28;20131;-61
2023/11/10 04:41:02;;;;;;;20.33;13.82;;;;;;;;;;5047243;28;20442;-61
2023/11/10 04:43:29;;;;;;;18.58;13.20;;;;;;;;;;5049340;28;20132;-61
2023/11/10 04:45:55;;;;;;;21.92;13.75;;;;;;;;;;5047486;28;20037;-61
2023/11/10 04:48:21;;;;;;;26.63;14.32;;;;;;;;;;5036266;28;20045;-61
2023/11/10 04:50:48;;;;;;;20.35;14.20;;;;;;;;;;5047874;28;20499;-61
2023/11/10 04:53:14;;;;;;;25.38;14.13;;;;;;;;;;5047807;28;20124;-61
2023/11/10 04:55:41;;;;;;;23.85;13.63;;;;;;;;;;5047504;28;20110;-61
2023/11/10 04:58:07;;;;;;;21.95;12.60;;;;;;;;;;5041981;28;20037;-61
2023/11/10 05:00:33;;;;;;;18.40;12.45;;;;;;;;;;5047047;28;20125;-61
2023/11/10 05:03:06;;;;;;;21.20;12.60;;;;;;;;;;5050525;28;20507;-61
2023/11/10 05:05:34;;;;;;;20.73;12.77;;;;;;;;;;5031655;28;20095;-61
2023/11/10 05:08:02;;;;;;;20.92;12.43;;;;;;;;;;5047330;28;20184;-61
2023/11/10 05:10:28;;;;;;;18.88;12.32;;;;;;;;;;5049695;28;20102;-61
2023/11/10 05:12:54;;;;;;;19.48;12.32;;;;;;;;;;5049665;28;20087;-61
2023/11/10 05:15:20;;;;;;;20.70;11.65;;;;;;;;;;5029264;28;20400;-61
2023/11/10 05:17:47;;;;;;;18.98;12.43;;;;;;;;;;5048834;28;20560;-61
2023/11/10 05:20:14;;;;;;;20.38;10.40;;;;;;;;;;5045347;28;20446;-61
2023/11/10 05:22:42;;;;;;;19.48;10.43;;;;;;;;;;5049108;28;20437;-61
2023/11/10 05:25:08;;;;;;;17.73;11.32;;;;;;;;;;5048441;28;20119;-61
2023/11/10 05:27:35;;;;;;;21.98;11.43;;;;;;;;;;5049404;28;20060;-61
2023/11/10 05:30:01;;;;;;;18.92;11.82;;;;;;;;;;5047224;28;20118;-62
2023/11/10 05:32:27;;;;;;;20.10;11.48;;;;;;;;;;5046045;28;20053;-61
2023/11/10 05:34:54;;;;;;;18.85;11.50;;;;;;;;;;5047566;28;20041;-61
2023/11/10 05:37:23;;;;;;;20.75;12.10;;;;;;;;;;5045011;28;20512;-61
2023/11/10 05:39:53;;;;;;;22.08;11.85;;;;;;;;;;5048549;28;20040;-61
2023/11/10 05:42:23;;;;;;;22.80;11.48;;;;;;;;;;5042871;28;20049;-61
2023/11/10 05:44:49;;;;;;;20.83;12.55;;;;;;;;;;5047192;28;20076;-61
2023/11/10 05:47:16;;;;;;;24.05;12.57;;;;;;;;;;5047980;28;20044;-61
2023/11/10 05:49:42;;;;;;;19.08;12.23;;;;;;;;;;5052348;28;20052;-61
2023/11/10 05:52:09;;;;;;;24.17;12.43;;;;;;;;;;5047814;28;20037;-61
2023/11/10 05:54:36;;;;;;;21.88;13.35;;;;;;;;;;5050199;28;20068;-61
2023/11/10 05:57:02;;;;;;;26.13;13.48;;;;;;;;;;5048686;28;20124;-61
2023/11/10 05:59:28;;;;;;;19.83;11.90;;;;;;;;;;5047073;28;20048;-62
2023/11/10 06:01:55;;;;;;;23.17;12.43;;;;;;;;;;5045932;28;20038;-61
2023/11/10 06:04:23;;;;;;;28.08;12.77;;;;;;;;;;5034547;28;20060;-61
2023/11/10 06:06:49;;;;;;;24.10;12.55;;;;;;;;;;5047255;28;20041;-61
2023/11/10 06:09:21;;;;;;;22.73;12.45;;;;;;;;;;5049542;28;20083;-61
2023/11/10 06:11:49;;;;;;;28.48;12.38;;;;;;;;;;5052418;28;20056;-61
2023/11/10 06:14:16;;;;;;;28.38;13.27;;;;;;;;;;5053753;28;20049;-61
2023/11/10 06:16:44;;;;;;;25.73;13.07;;;;;;;;;;5053896;28;20445;-61
2023/11/10 06:19:10;;;;;;;27.70;12.88;;;;;;;;;;5051494;28;20045;-61
2023/11/10 06:21:36;;;;;;;21.92;12.52;;;;;;;;;;5032722;28;20075;-60
2023/11/10 06:24:03;;;;;;;22.38;13.55;;;;;;;;;;5052307;28;20099;-60
2023/11/10 06:26:30;;;;;;;25.17;13.38;;;;;;;;;;5052250;28;20045;-61
2023/11/10 06:29:00;;;;;;;21.50;13.73;;;;;;;;;;5052528;28;20113;-60
2023/11/10 06:31:26;;;;;;;23.85;13.20;;;;;;;;;;5050926;28;20473;-60
2023/11/10 06:33:52;;;;;;;26.95;13.98;;;;;;;;;;5051072;28;20064;-61
2023/11/10 06:36:20;;;;;;;21.40;12.77;;;;;;;;;;5047418;28;20132;-60
2023/11/10 06:38:47;;;;;;;23.73;13.82;;;;;;;;;;5051679;28;20045;-60
2023/11/10 06:41:14;;;;;;;24.92;13.60;;;;;;;;;;5052359;28;20115;-60
2023/11/10 06:43:44;;;;;;;26.98;13.52;;;;;;;;;;5051880;28;20048;-60
2023/11/10 06:46:11;;;;;;;23.38;13.68;;;;;;;;;;5051035;28;20386;-61
2023/11/10 06:48:37;;;;;;;23.48;13.15;;;;;;;;;;5053329;28;20099;-61
2023/11/10 06:51:04;;;;;;;23.38;13.25;;;;;;;;;;5053157;28;20079;-60
2023/11/10 06:53:30;;;;;;;26.15;14.45;;;;;;;;;;5048086;28;20072;-61
2023/11/10 06:55:57;;;;;;;27.88;14.73;;;;;;;;;;5048916;28;20044;-61
2023/11/10 06:58:23;;;;;;;26.67;14.98;;;;;;;;;;5052950;28;20075;-60
2023/11/10 07:00:49;;;;;;;25.73;15.95;;;;;;;;;;5047575;28;20072;-60
2023/11/10 07:03:16;;;;;;;27.52;15.57;;;;;;;;;;5046620;28;20057;-61
2023/11/10 07:05:43;;;;;;;24.73;15.27;;;;;;;;;;5039125;28;20128;-61
2023/11/10 07:08:09;;;;;;;28.58;16.42;;;;;;;;;;5043514;28;20124;-59
2023/11/10 07:10:47;;;;;;;33.03;16.45;;;;;;;;;;5046734;28;20036;-60
2023/11/10 07:13:14;;;;;;;29.65;16.00;;;;;;;;;;5043727;28;20451;-60
2023/11/10 07:15:41;;;;;;;30.02;17.00;;;;;;;;;;5048886;28;20881;-60
2023/11/10 07:18:07;;;;;;;30.70;16.17;;;;;;;;;;5047320;28;20106;-59
2023/11/10 07:20:33;;;;;;;32.30;17.50;;;;;;;;;;5051640;28;20045;-60
2023/11/10 07:23:00;;;;;;;27.40;16.70;;;;;;;;;;5052452;28;20040;-60
2023/11/10 07:25:27;;;;;;;27.05;15.55;;;;;;;;;;5050285;28;20503;-59
2023/11/10 07:27:54;;;;;;;31.63;17.00;;;;;;;;;;5051823;28;20063;-58
2023/11/10 07:30:21;;;;;;;26.67;17.40;;;;;;;;;;5049699;28;20079;-59
2023/11/10 07:32:47;;;;;;;28.63;16.77;;;;;;;;;;5040139;28;20058;-59
2023/11/10 07:35:14;;;;;;;33.70;16.50;;;;;;;;;;5051601;28;20033;-59
2023/11/10 07:37:40;;;;;;;32.97;17.48;;;;;;;;;;5043752;28;20072;-59
2023/11/10 07:40:08;;;;;;;29.83;17.58;;;;;;;;;;5051374;28;20063;-59
2023/11/10 07:42:37;;;;;;;45.17;20.17;;;;;;;;;;5051662;28;20053;-59
2023/11/10 07:45:04;;;;;;;26.65;15.95;;;;;;;;;;5048796;28;20489;-59
2023/11/10 07:47:30;;;;;;;30.05;16.75;;;;;;;;;;5050003;28;20089;-59
2023/11/10 07:49:57;;;;;;;26.42;16.02;;;;;;;;;;5045439;28;20080;-59
2023/11/10 07:52:24;;;;;;;24.58;14.38;;;;;;;;;;5049648;28;20489;-59
2023/11/10 07:54:51;;;;;;;27.77;15.25;;;;;;;;;;5051222;28;20129;-59
2023/11/10 07:57:17;;;;;;;26.02;16.50;;;;;;;;;;5050194;28;20089;-59
2023/11/10 07:59:43;;;;;;;25.38;14.40;;;;;;;;;;5052043;28;20422;-59
2023/11/10 08:02:11;;;;;;;22.48;14.65;;;;;;;;;;5051718;28;20444;-59
2023/11/10 08:04:38;;;;;;;24.33;14.88;;;;;;;;;;5051056;28;20453;-59
2023/11/10 08:07:05;;;;;;;26.63;15.25;;;;;;;;;;5048336;28;20041;-59
2023/11/10 08:09:33;;;;;;;29.83;16.02;;;;;;;;;;5052011;28;20127;-59
2023/11/10 08:12:00;;;;;;;22.42;15.55;;;;;;;;;;5050808;28;20037;-59
2023/11/10 08:14:26;;;;;;;25.80;15.23;;;;;;;;;;5048961;28;20137;-58
2023/11/10 08:16:52;;;;;;;24.88;15.77;;;;;;;;;;5045210;28;20037;-59
2023/11/10 08:19:18;;;;;;;24.52;14.75;;;;;;;;;;5048944;28;20130;-62
2023/11/10 08:21:44;;;;;;;26.88;14.43;;;;;;;;;;5039810;28;20096;-58
2023/11/10 08:24:11;;;;;;;23.60;14.32;;;;;;;;;;5044968;28;20060;-59
2023/11/10 08:26:38;;;;;;;20.35;13.93;;;;;;;;;;5037089;28;20057;-59
2023/11/10 08:29:05;;;;;;;18.33;13.02;;;;;;;;;;5050940;28;20049;-59
2023/11/10 08:31:31;;;;;;;21.92;13.50;;;;;;;;;;5048206;28;20077;-58
2023/11/10 08:33:57;;;;;;;17.33;9.82;;;;;;;;;;5051471;28;20455;-59
2023/11/10 08:36:23;;;;;;;18.95;9.07;;;;;;;;;;5046641;28;20130;-59
2023/11/10 08:38:49;;;;;;;15.32;9.30;;;;;;;;;;5047235;28;20041;-59
2023/11/10 08:41:16;;;;;;;17.08;8.68;;;;;;;;;;5046641;28;20041;-59
2023/11/10 08:43:43;;;;;;;18.00;9.48;;;;;;;;;;5048641;28;20085;-59
2023/11/10 08:46:09;;;;;;;28.33;8.90;;;;;;;;;;5050102;28;20045;-59
2023/11/10 08:48:35;;;;;;;20.63;7.32;;;;;;;;;;5047198;28;20045;-59
2023/11/10 08:51:02;;;;;;;13.38;7.35;;;;;;;;;;5046028;28;20052;-59
2023/11/10 08:53:29;;;;;;;19.30;8.65;;;;;;;;;;5043976;28;20087;-59
2023/11/10 08:55:57;;;;;;;16.52;8.25;;;;;;;;;;5049551;28;20121;-59
2023/11/10 08:58:23;;;;;;;20.05;9.32;;;;;;;;;;5050798;28;20117;-60
2023/11/10 09:00:52;;;;;;;18.35;9.20;;;;;;;;;;5042264;28;20034;-60
2023/11/10 09:03:19;;;;;;;22.15;8.25;;;;;;;;;;5047555;28;20053;-60
2023/11/10 09:05:45;;;;;;;17.40;8.35;;;;;;;;;;5048694;28;20116;-59
2023/11/10 09:08:11;;;;;;;19.85;8.55;;;;;;;;;;5049856;28;20045;-59
2023/11/10 09:10:37;;;;;;;27.63;8.90;;;;;;;;;;5050658;28;20040;-60
2023/11/10 09:13:04;;;;;;;21.35;9.15;;;;;;;;;;5048492;28;20476;-60
2023/11/10 09:15:32;;;;;;;21.23;8.32;;;;;;;;;;5049835;28;20123;-60
2023/11/10 09:17:58;;;;;;;18.83;9.07;;;;;;;;;;5049495;28;20060;-60
2023/11/10 09:20:24;;;;;;;24.02;8.95;;;;;;;;;;5049729;28;20348;-59
2023/11/10 09:22:50;;;;;;;15.38;7.45;;;;;;;;;;5036983;28;20040;-60
2023/11/10 09:25:20;;;;;;;16.77;6.90;;;;;;;;;;5032348;28;20515;-60
2023/11/10 09:27:47;;;;;;;19.95;6.47;;;;;;;;;;5049639;28;20037;-59
2023/11/10 09:30:13;;;;;;;14.02;6.28;;;;;;;;;;5050325;28;20515;-60
2023/11/10 09:32:40;;;;;;;16.55;5.75;;;;;;;;;;5048602;28;20049;-60
2023/11/10 09:35:06;;;;;;;15.27;6.07;;;;;;;;;;5043849;28;20497;-60
2023/11/10 09:37:33;;;;;;;12.75;5.13;;;;;;;;;;5045536;28;20107;-59
2023/11/10 09:40:00;;;;;;;16.90;6.20;;;;;;;;;;5047841;28;20049;-59
2023/11/10 09:42:26;;;;;;;16.40;5.90;;;;;;;;;;5046833;28;20045;-59
2023/11/10 09:44:53;;;;;;;13.38;6.15;;;;;;;;;;5054297;28;20123;-59
2023/11/10 09:47:23;;;;;;;18.98;6.80;;;;;;;;;;5053861;28;20048;-59
2023/11/10 09:49:50;;;;;;;15.07;7.45;;;;;;;;;;5050470;28;20070;-60
2023/11/10 09:52:17;;;;;;;14.65;6.85;;;;;;;;;;5054365;28;20037;-59
2023/11/10 09:54:49;;;;;;;21.27;7.88;;;;;;;;;;5054309;28;20402;-59
2023/11/10 09:57:15;;;;;;;19.95;7.43;;;;;;;;;;5051972;28;20071;-59
2023/11/10 09:59:43;;;;;;;17.38;7.63;;;;;;;;;;5054436;28;20045;-59
2023/11/10 10:02:11;;;;;;;17.02;6.63;;;;;;;;;;5050400;28;20047;-59
2023/11/10 10:04:42;;;;;;;18.92;7.53;;;;;;;;;;5053461;28;20084;-59
2023/11/10 10:07:10;;;;;;;18.73;8.40;;;;;;;;;;5043688;28;20049;-59
2023/11/10 10:09:36;;;;;;;17.83;7.93;;;;;;;;;;5053232;28;20639;-60
2023/11/10 10:12:02;;;;;;;22.52;8.80;;;;;;;;;;5053958;28;20111;-60
2023/11/10 10:14:28;;;;;;;15.18;8.93;;;;;;;;;;5054083;28;20444;-59
2023/11/10 10:16:55;;;;;;;20.23;9.38;;;;;;;;;;5050629;28;20037;-59
2023/11/10 10:19:27;;;;;;;15.45;8.63;;;;;;;;;;5052635;28;20389;-59
2023/11/10 10:21:53;;;;;;;20.05;8.77;;;;;;;;;;5053059;28;20094;-59
2023/11/10 10:24:19;;;;;;;19.17;9.88;;;;;;;;;;5053024;28;20086;-59
2023/11/10 10:26:46;;;;;;;24.98;10.15;;;;;;;;;;5053011;28;20041;-59
2023/11/10 10:29:13;;;;;;;18.88;9.98;;;;;;;;;;5053554;28;20417;-59
2023/11/10 10:31:40;;;;;;;21.05;10.45;;;;;;;;;;5051172;28;20036;-59
2023/11/10 10:34:06;;;;;;;23.48;10.27;;;;;;;;;;5051890;28;20060;-59
2023/11/10 10:36:37;;;;;;;16.85;9.30;;;;;;;;;;5035825;28;20128;-59
2023/11/10 10:39:10;;;;;;;22.20;11.05;;;;;;;;;;5052745;28;20495;-59
2023/11/10 10:41:38;;;;;;;19.65;11.23;;;;;;;;;;5050864;28;20041;-59
2023/11/10 10:44:04;;;;;;;19.35;9.43;;;;;;;;;;5053294;28;20056;-59
2023/11/10 10:46:34;;;;;;;23.73;10.48;;;;;;;;;;5052489;28;20037;-59
2023/11/10 10:49:01;;;;;;;20.70;10.48;;;;;;;;;;5051844;28;20043;-59
2023/11/10 10:51:37;;;;;;;22.20;10.38;;;;;;;;;;5052637;28;20389;-59
2023/11/10 10:54:04;;;;;;;21.05;11.35;;;;;;;;;;5039903;28;20041;-59
2023/11/10 10:56:35;;;;;;;19.00;10.63;;;;;;;;;;5052424;28;20508;-59
2023/11/10 10:59:01;;;;;;;24.42;11.45;;;;;;;;;;5052072;28;20049;-59
2023/11/10 11:01:27;;;;;;;21.27;11.93;;;;;;;;;;5052279;28;20080;-59
2023/11/10 11:04:02;;;;;;;24.52;11.68;;;;;;;;;;5052215;28;20041;-59
2023/11/10 11:06:31;;;;;;;23.55;12.45;;;;;;;;;;5052483;28;20500;-59
2023/11/10 11:09:13;;;;;;;28.02;14.07;;;;;;;;;;5052755;28;20060;-59
2023/11/10 11:11:43;;;;;;;20.85;12.13;;;;;;;;;;5048689;28;20068;-59
2023/11/10 11:14:25;;;;;;;25.52;13.43;;;;;;;;;;5051886;28;20095;-59
2023/11/10 11:17:00;;;;;;;25.40;12.63;;;;;;;;;;5051982;28;20507;-59
2023/11/10 11:19:29;;;;;;;21.83;13.38;;;;;;;;;;5034997;28;20044;-59
2023/11/10 11:21:56;;;;;;;24.67;12.73;;;;;;;;;;5047127;28;20163;-61
2023/11/10 11:24:23;;;;;;;23.13;12.25;;;;;;;;;;5049721;28;20081;-60
2023/11/10 11:26:58;;;;;;;23.90;11.90;;;;;;;;;;5047729;28;20315;-60
2023/11/10 11:29:25;;;;;;;22.98;12.48;;;;;;;;;;5054381;28;20574;-60
2023/11/10 11:31:51;;;;;;;24.42;12.82;;;;;;;;;;5052519;28;20127;-60
2023/11/10 11:34:21;;;;;;;25.10;12.82;;;;;;;;;;5051745;28;20037;-60
2023/11/10 11:36:48;;;;;;;26.75;13.48;;;;;;;;;;5052427;28;20044;-60
2023/11/10 11:39:19;;;;;;;25.73;13.07;;;;;;;;;;5051464;28;20135;-60
2023/11/10 11:41:49;;;;;;;23.60;12.30;;;;;;;;;;5051843;28;20147;-60
2023/11/10 11:44:42;;;;;;;23.08;13.15;;;;;;;;;;5051786;28;20195;-60
2023/11/10 11:47:12;;;;;;;25.20;12.25;;;;;;;;;;5048562;28;20080;-60
2023/11/10 11:49:39;;;;;;;28.88;13.73;;;;;;;;;;5050084;28;20045;-60
2023/11/10 11:52:11;;;;;;;24.92;12.45;;;;;;;;;;5051933;28;20081;-60
2023/11/10 11:54:37;;;;;;;24.65;11.85;;;;;;;;;;5051858;28;20053;-60
2023/11/10 11:57:04;;;;;;;24.23;11.70;;;;;;;;;;5050672;28;20075;-60
2023/11/10 11:59:30;;;;;;;27.10;12.15;;;;;;;;;;5050988;28;20064;-60
2023/11/10 12:01:56;;;;;;;22.80;11.05;;;;;;;;;;5050977;28;20509;-60
2023/11/10 12:04:23;;;;;;;25.83;10.90;;;;;;;;;;5052096;28;20086;-60
2023/11/10 12:06:49;;;;;;;21.85;11.20;;;;;;;;;;5049896;28;20134;-59
2023/11/10 12:09:17;;;;;;;22.10;11.05;;;;;;;;;;5037336;28;20044;-60
2023/11/10 12:11:45;;;;;;;20.10;11.57;;;;;;;;;;5051725;28;20047;-60
2023/11/10 12:14:12;;;;;;;25.42;12.32;;;;;;;;;;5050592;28;20480;-60
2023/11/10 12:16:39;;;;;;;22.88;11.70;;;;;;;;;;5050386;28;20467;-60
2023/11/10 12:19:05;;;;;;;21.85;10.73;;;;;;;;;;5048120;28;20500;-60
2023/11/10 12:21:32;;;;;;;27.30;12.63;;;;;;;;;;5048169;28;20104;-60
2023/11/10 12:24:05;;;;;;;19.75;11.65;;;;;;;;;;5050313;28;20053;-59
2023/11/10 12:26:36;;;;;;;23.77;10.95;;;;;;;;;;5046366;28;20116;-59
2023/11/10 12:29:03;;;;;;;19.90;9.82;;;;;;;;;;5050508;28;20206;-60
2023/11/10 12:31:32;;;;;;;20.80;10.32;;;;;;;;;;5050809;28;20077;-60
2023/11/10 12:33:59;;;;;;;18.48;10.18;;;;;;;;;;5050736;28;20091;-60
2023/11/10 12:36:26;;;;;;;22.65;9.75;;;;;;;;;;5051130;28;20074;-60
2023/11/10 12:38:52;;;;;;;20.23;9.68;;;;;;;;;;5050480;28;20049;-59
2023/11/10 12:41:18;;;;;;;26.27;10.45;;;;;;;;;;5050042;28;20103;-60
2023/11/10 12:43:44;;;;;;;16.40;9.43;;;;;;;;;;5050950;28;20159;-60
2023/11/10 12:46:12;;;;;;;28.23;9.63;;;;;;;;;;5030307;28;20041;-59
2023/11/10 12:48:40;;;;;;;21.48;8.80;;;;;;;;;;5033184;28;20045;-60
2023/11/10 12:51:07;;;;;;;16.48;8.85;;;;;;;;;;5048277;28;20120;-60
2023/11/10 12:53:33;;;;;;;19.10;8.27;;;;;;;;;;5046338;28;20056;-59
2023/11/10 12:56:02;;;;;;;22.58;7.57;;;;;;;;;;5045575;28;20089;-60
2023/11/10 12:58:29;;;;;;;16.67;8.02;;;;;;;;;;5049962;28;20495;-59
2023/11/10 13:00:56;;;;;;;20.33;7.10;;;;;;;;;;5032238;28;20491;-60
2023/11/10 13:03:22;;;;;;;14.63;7.18;;;;;;;;;;5050619;28;20179;-60
2023/11/10 13:05:49;;;;;;;15.63;7.05;;;;;;;;;;5049935;28;20520;-60
2023/11/10 13:08:15;;;;;;;13.40;6.75;;;;;;;;;;5049866;28;20045;-60
2023/11/10 13:10:41;;;;;;;16.38;7.20;;;;;;;;;;5046389;28;20462;-59
2023/11/10 13:13:07;;;;;;;17.55;6.57;;;;;;;;;;5049813;28;20468;-59
2023/11/10 13:15:34;;;;;;;15.15;6.53;;;;;;;;;;5050356;28;20471;-60
2023/11/10 13:18:01;;;;;;;15.95;6.88;;;;;;;;;;5050259;28;20049;-60
2023/11/10 13:20:32;;;;;;;13.10;6.75;;;;;;;;;;5049352;28;20047;-60
2023/11/10 13:22:58;;;;;;;14.70;6.95;;;;;;;;;;5050793;28;20047;-60
2023/11/10 13:25:24;;;;;;;14.23;6.60;;;;;;;;;;5044982;28;20135;-60
2023/11/10 13:27:51;;;;;;;17.25;7.03;;;;;;;;;;5049551;28;20080;-60
2023/11/10 13:30:18;;;;;;;13.10;6.07;;;;;;;;;;5050319;28;20057;-59
2023/11/10 13:32:47;;;;;;;12.55;6.78;;;;;;;;;;5032411;28;20112;-60
2023/11/10 13:35:15;;;;;;;14.23;5.65;;;;;;;;;;5049534;28;20372;-59
2023/11/10 13:37:42;;;;;;;11.95;7.63;;;;;;;;;;5032593;28;20037;-60
2023/11/10 13:40:16;;;;;;;14.40;7.57;;;;;;;;;;5048229;28;20049;-59
2023/11/10 13:42:42;;;;;;;;;;;;;;;;;;5044408;28;20037;-60
2023/11/10 13:45:11;;;;;;;16.35;6.63;;;;;;;;;;5050324;28;20416;-60
2023/11/10 13:47:40;;;;;;;12.98;6.85;;;;;;;;;;5049343;28;20037;-70
2023/11/10 13:50:07;;;;;;;15.25;6.93;;;;;;;;;;5047022;28;20037;-60
2023/11/10 13:52:33;;;;;;;14.55;7.00;;;;;;;;;;5029193;28;20076;-60
2023/11/10 13:55:00;;;;;;;12.45;5.82;;;;;;;;;;5043963;28;20448;-60
2023/11/10 13:57:26;;;;;;;12.73;6.38;;;;;;;;;;5049720;28;20037;-60
2023/11/10 13:59:52;;;;;;;14.07;6.22;;;;;;;;;;5047144;28;20045;-60
2023/11/10 14:02:19;;;;;;;11.02;5.43;;;;;;;;;;5030097;28;20435;-60
2023/11/10 14:04:46;;;;;;;12.63;5.18;;;;;;;;;;5049999;28;20416;-60
2023/11/10 14:07:13;;;;;;;10.40;4.78;;;;;;;;;;5047003;28;20049;-60
2023/11/10 14:09:40;;;;;;;8.73;4.45;;;;;;;;;;5048915;28;20049;-60
2023/11/10 14:12:09;;;;;;;8.77;4.15;;;;;;;;;;5049501;28;20048;-60
2023/11/10 14:14:36;;;;;;;12.18;5.07;;;;;;;;;;5049272;28;20041;-60
2023/11/10 14:17:10;;;;;;;10.80;4.38;;;;;;;;;;5045751;28;20057;-60
2023/11/10 14:19:43;;;;;;;10.65;4.32;;;;;;;;;;5045841;28;20402;-60
2023/11/10 14:22:11;;;;;;;8.07;4.10;;;;;;;;;;5047931;28;20493;-60
2023/11/10 14:24:37;;;;;;;9.82;4.82;;;;;;;;;;5047537;28;20075;-60
2023/11/10 14:27:04;;;;;;;11.13;4.38;;;;;;;;;;5048776;28;20045;-60